createdAt,value
2018-06-30T00:02:22.668Z,21.10
2018-06-30T00:05:03.137Z,21.20
2018-06-30T00:07:43.947Z,21.10
2018-06-30T00:10:26.905Z,21.10
2018-06-30T00:13:07.172Z,20.90
2018-06-30T00:15:47.387Z,21.10
2018-06-30T00:18:27.635Z,21.10
2018-06-30T00:21:08.320Z,21.10
2018-06-30T00:23:48.548Z,21.10
2018-06-30T00:26:28.928Z,20.80
2018-06-30T00:29:09.489Z,20.90
2018-06-30T00:31:49.828Z,21.00
2018-06-30T00:34:30.123Z,20.80
2018-06-30T00:37:10.350Z,20.70
2018-06-30T00:39:50.777Z,20.80
2018-06-30T00:42:31.188Z,20.80
2018-06-30T00:45:11.512Z,20.90
2018-06-30T00:47:51.826Z,20.40
2018-06-30T00:50:32.392Z,20.30
2018-06-30T00:53:12.728Z,20.40
2018-06-30T00:55:52.972Z,20.70
2018-06-30T00:58:33.316Z,20.40
2018-06-30T01:01:13.423Z,20.40
2018-06-30T01:03:53.764Z,20.20
2018-06-30T01:06:33.819Z,20.20
2018-06-30T01:09:14.322Z,20.50
2018-06-30T01:11:54.581Z,20.40
2018-06-30T01:14:34.983Z,20.10
2018-06-30T01:17:15.263Z,20.20
2018-06-30T01:19:55.605Z,20.30
2018-06-30T01:22:35.823Z,20.10
2018-06-30T01:25:16.212Z,19.50
2018-06-30T01:35:59.898Z,19.70
2018-06-30T01:38:40.141Z,19.40
2018-06-30T01:41:20.445Z,19.50
2018-06-30T01:44:00.654Z,19.50
2018-06-30T01:46:41.017Z,19.80
2018-06-30T01:49:21.236Z,19.50
2018-06-30T01:52:01.508Z,19.70
2018-06-30T01:54:41.617Z,19.40
2018-06-30T01:57:21.921Z,19.60
2018-06-30T02:00:02.431Z,19.40
2018-06-30T02:02:42.677Z,19.50
2018-06-30T02:05:22.820Z,19.50
2018-06-30T02:08:04.142Z,19.40
2018-06-30T02:10:44.508Z,19.30
2018-06-30T02:13:24.567Z,19.40
2018-06-30T02:16:04.910Z,19.30
2018-06-30T02:18:45.106Z,19.40
2018-06-30T02:21:25.291Z,19.30
2018-06-30T02:24:05.664Z,19.10
2018-06-30T02:26:46.096Z,19.50
2018-06-30T02:32:06.486Z,19.30
2018-06-30T02:34:46.820Z,19.50
2018-06-30T02:37:26.930Z,19.40
2018-06-30T02:40:07.273Z,19.50
2018-06-30T02:42:47.517Z,19.10
2018-06-30T02:45:28.003Z,19.30
2018-06-30T02:48:08.222Z,19.10
2018-06-30T02:50:48.588Z,19.30
2018-06-30T02:53:29.014Z,18.80
2018-06-30T02:56:09.253Z,19.00
2018-06-30T02:58:49.700Z,19.00
2018-06-30T03:01:29.989Z,18.90
2018-06-30T03:04:10.455Z,18.90
2018-06-30T03:06:50.744Z,18.50
2018-06-30T03:09:31.655Z,18.80
2018-06-30T03:12:12.231Z,18.70
2018-06-30T03:14:52.576Z,18.40
2018-06-30T03:17:33.051Z,18.40
2018-06-30T03:20:13.299Z,18.50
2018-06-30T03:22:53.546Z,18.50
2018-06-30T03:25:33.916Z,18.30
2018-06-30T03:28:13.973Z,18.70
2018-06-30T03:30:54.194Z,18.60
2018-06-30T03:36:14.476Z,18.80
2018-06-30T03:38:54.857Z,18.70
2018-06-30T03:41:35.359Z,18.80
2018-06-30T03:44:15.658Z,18.70
2018-06-30T03:46:55.836Z,18.50
2018-06-30T03:49:36.129Z,18.40
2018-06-30T03:54:56.604Z,18.70
2018-06-30T03:57:36.974Z,18.60
2018-06-30T04:00:17.339Z,18.50
2018-06-30T04:02:57.471Z,18.70
2018-06-30T04:05:37.782Z,18.60
2018-06-30T04:08:18.209Z,18.60
2018-06-30T04:10:58.730Z,18.40
2018-06-30T04:13:39.016Z,18.60
2018-06-30T04:16:19.271Z,18.60
2018-06-30T04:19:03.937Z,18.40
2018-06-30T04:21:46.377Z,18.40
2018-06-30T04:24:26.739Z,18.40
2018-06-30T04:27:07.032Z,18.60
2018-06-30T04:29:47.388Z,18.70
2018-06-30T04:32:27.728Z,18.60
2018-06-30T04:35:07.944Z,18.50
2018-06-30T04:37:48.181Z,18.80
2018-06-30T04:40:28.428Z,18.60
2018-06-30T04:43:08.698Z,19.20
2018-06-30T04:48:29.287Z,18.80
2018-06-30T04:51:09.448Z,18.90
2018-06-30T04:53:49.797Z,19.10
2018-06-30T04:56:30.245Z,19.00
2018-06-30T04:59:10.535Z,19.00
2018-06-30T05:04:30.819Z,19.00
2018-06-30T05:09:51.207Z,19.30
2018-06-30T05:12:31.571Z,19.40
2018-06-30T05:15:11.894Z,19.00
2018-06-30T05:17:51.886Z,19.10
2018-06-30T05:20:32.268Z,19.60
2018-06-30T05:23:12.652Z,19.30
2018-06-30T05:25:54.740Z,19.30
2018-06-30T05:28:35.080Z,19.40
2018-06-30T05:31:15.316Z,19.60
2018-06-30T05:33:55.582Z,19.60
2018-06-30T05:36:35.964Z,19.70
2018-06-30T05:39:16.271Z,19.50
2018-06-30T05:41:56.480Z,19.70
2018-06-30T05:44:36.811Z,19.70
2018-06-30T05:47:17.284Z,19.70
2018-06-30T05:49:57.563Z,19.80
2018-06-30T05:52:37.977Z,20.30
2018-06-30T05:57:58.523Z,20.30
2018-06-30T06:00:39.909Z,20.00
2018-06-30T06:03:19.911Z,20.20
2018-06-30T06:06:00.164Z,20.50
2018-06-30T06:08:40.600Z,21.10
2018-06-30T06:14:00.801Z,21.20
2018-06-30T06:16:41.056Z,21.10
2018-06-30T06:19:21.188Z,21.40
2018-06-30T06:22:01.573Z,21.20
2018-06-30T06:24:41.732Z,21.30
2018-06-30T06:27:21.885Z,21.90
2018-06-30T06:30:02.428Z,22.00
2018-06-30T06:32:42.810Z,22.20
2018-06-30T06:35:23.024Z,22.20
2018-06-30T06:40:43.555Z,22.00
2018-06-30T06:43:23.917Z,22.20
2018-06-30T06:46:04.072Z,22.40
2018-06-30T06:48:44.431Z,22.50
2018-06-30T06:51:24.516Z,23.00
2018-06-30T06:56:45.206Z,22.90
2018-06-30T06:59:25.683Z,22.90
2018-06-30T07:04:45.887Z,22.70
2018-06-30T07:07:26.308Z,23.10
2018-06-30T07:12:46.389Z,22.90
2018-06-30T07:15:26.644Z,23.00
2018-06-30T07:18:06.983Z,22.80
2018-06-30T07:20:47.363Z,23.00
2018-06-30T07:23:27.444Z,22.80
2018-06-30T07:26:08.083Z,23.30
2018-06-30T07:28:48.275Z,23.50
2018-06-30T07:31:28.555Z,23.90
2018-06-30T07:36:48.757Z,24.30
2018-06-30T07:39:29.186Z,23.80
2018-06-30T07:44:49.661Z,23.70
2018-06-30T07:47:30.065Z,23.70
2018-06-30T07:50:10.220Z,23.30
2018-06-30T07:52:50.587Z,23.30
2018-06-30T07:55:30.784Z,23.80
2018-06-30T07:58:10.940Z,24.00
2018-06-30T08:00:51.074Z,23.70
2018-06-30T08:03:31.607Z,24.60
2018-06-30T08:06:12.146Z,24.80
2018-06-30T08:08:52.661Z,24.80
2018-06-30T08:11:32.844Z,24.60
2018-06-30T08:14:13.097Z,24.50
2018-06-30T08:16:53.604Z,24.90
2018-06-30T08:19:34.568Z,25.00
2018-06-30T08:22:15.165Z,25.80
2018-06-30T08:24:56.165Z,25.10
2018-06-30T08:27:36.339Z,25.50
2018-06-30T08:30:16.635Z,25.50
2018-06-30T08:32:56.932Z,26.00
2018-06-30T08:38:17.411Z,27.80
2018-06-30T08:40:57.776Z,28.00
2018-06-30T08:43:38.209Z,28.50
2018-06-30T08:46:18.441Z,28.60
2018-06-30T08:48:59.888Z,28.40
2018-06-30T08:51:40.270Z,28.60
2018-06-30T08:54:20.833Z,30.50
2018-06-30T08:59:42.017Z,32.40
2018-06-30T09:02:22.453Z,32.70
2018-06-30T09:05:03.139Z,33.70
2018-06-30T09:07:43.282Z,34.60
2018-06-30T09:10:23.642Z,33.80
2018-06-30T09:13:04.510Z,32.30
2018-06-30T09:15:44.846Z,30.60
2018-06-30T09:18:25.102Z,31.20
2018-06-30T09:21:05.496Z,30.70
2018-06-30T09:23:45.683Z,31.40
2018-06-30T09:26:29.137Z,32.60
2018-06-30T09:29:09.685Z,33.20
2018-06-30T09:31:49.938Z,32.30
2018-06-30T09:34:30.172Z,34.30
2018-06-30T09:37:10.310Z,34.10
2018-06-30T09:39:50.471Z,34.50
2018-06-30T09:42:30.716Z,35.90
2018-06-30T09:45:11.100Z,36.00
2018-06-30T09:47:51.188Z,36.20
2018-06-30T09:50:31.496Z,36.80
2018-06-30T09:53:11.768Z,37.40
2018-06-30T09:55:52.101Z,36.00
2018-06-30T09:58:19.861Z,35.80
2018-06-30T10:00:54.966Z,35.90
2018-06-30T10:03:23.444Z,37.00
2018-06-30T10:05:51.212Z,37.80
2018-06-30T10:08:18.956Z,35.80
2018-06-30T10:13:26.731Z,35.80
2018-06-30T10:15:54.545Z,37.70
2018-06-30T10:18:22.355Z,35.40
2018-06-30T10:20:50.245Z,34.10
2018-06-30T10:23:18.086Z,36.10
2018-06-30T10:25:45.845Z,36.50
2018-06-30T10:28:13.576Z,36.90
2018-06-30T10:30:41.331Z,37.20
2018-06-30T10:33:09.879Z,37.40
2018-06-30T10:35:37.872Z,37.50
2018-06-30T10:38:05.681Z,37.70
2018-06-30T10:40:33.584Z,37.50
2018-06-30T10:43:01.313Z,37.60
2018-06-30T10:45:29.144Z,36.20
2018-06-30T10:47:56.881Z,34.40
2018-06-30T10:50:24.620Z,34.80
2018-06-30T10:52:52.417Z,35.20
2018-06-30T10:55:20.318Z,35.70
2018-06-30T11:00:15.697Z,38.00
2018-06-30T11:02:43.368Z,38.10
2018-06-30T11:05:11.913Z,38.40
2018-06-30T11:07:39.867Z,39.90
2018-06-30T11:10:08.039Z,40.30
2018-06-30T11:12:35.953Z,39.80
2018-06-30T11:17:31.423Z,41.00
2018-06-30T11:19:59.208Z,41.60
2018-06-30T11:22:26.934Z,41.30
2018-06-30T11:24:54.899Z,41.60
2018-06-30T11:27:22.940Z,42.00
2018-06-30T11:29:50.667Z,40.20
2018-06-30T11:32:18.435Z,39.60
2018-06-30T11:34:46.235Z,39.70
2018-06-30T11:39:41.784Z,39.60
2018-06-30T11:42:09.520Z,37.50
2018-06-30T11:44:37.616Z,37.40
2018-06-30T11:52:00.766Z,40.90
2018-06-30T11:54:28.635Z,39.60
2018-06-30T11:56:56.371Z,37.90
2018-06-30T11:59:24.172Z,35.60
2018-06-30T12:01:51.891Z,34.70
2018-06-30T12:04:19.661Z,36.10
2018-06-30T12:06:47.389Z,36.20
2018-06-30T12:09:15.128Z,36.60
2018-06-30T12:11:42.915Z,37.70
2018-06-30T12:16:39.205Z,35.80
2018-06-30T12:19:06.994Z,36.10
2018-06-30T12:21:34.823Z,37.70
2018-06-30T12:24:02.577Z,38.10
2018-06-30T12:26:30.327Z,38.40
2018-06-30T12:31:25.780Z,38.00
2018-06-30T12:33:53.552Z,37.00
2018-06-30T12:36:21.328Z,36.80
2018-06-30T12:38:49.256Z,36.80
2018-06-30T12:41:16.993Z,38.30
2018-06-30T12:46:12.807Z,38.80
2018-06-30T12:48:40.529Z,37.70
2018-06-30T12:51:08.295Z,36.00
2018-06-30T12:53:36.382Z,35.10
2018-06-30T12:56:05.052Z,34.90
2018-06-30T12:58:32.838Z,36.20
2018-06-30T13:01:00.613Z,36.70
2018-06-30T13:03:28.397Z,37.10
2018-06-30T13:05:56.194Z,37.70
2018-06-30T13:10:51.616Z,35.60
2018-06-30T13:15:47.075Z,36.40
2018-06-30T13:18:14.839Z,36.80
2018-06-30T13:20:42.624Z,36.20
2018-06-30T13:23:10.373Z,36.60
2018-06-30T13:25:38.158Z,36.40
2018-06-30T13:28:06.096Z,36.20
2018-06-30T13:30:33.839Z,35.60
2018-06-30T13:35:29.314Z,35.70
2018-06-30T13:37:57.122Z,36.40
2018-06-30T13:40:24.920Z,36.50
2018-06-30T13:42:52.716Z,36.10
2018-06-30T13:45:20.513Z,37.00
2018-06-30T13:50:15.956Z,36.80
2018-06-30T13:57:39.048Z,36.50
2018-06-30T14:00:07.327Z,36.60
2018-06-30T14:05:02.751Z,36.80
2018-06-30T14:07:30.599Z,36.80
2018-06-30T14:09:58.345Z,37.10
2018-06-30T14:12:26.149Z,37.30
2018-06-30T14:14:53.925Z,37.60
2018-06-30T14:17:21.731Z,37.80
2018-06-30T14:19:49.524Z,37.40
2018-06-30T14:22:17.279Z,36.80
2018-06-30T14:24:45.061Z,36.50
2018-06-30T14:29:40.531Z,34.70
2018-06-30T14:32:08.297Z,33.60
2018-06-30T14:34:40.723Z,33.70
2018-06-30T14:37:08.537Z,33.40
2018-06-30T14:39:36.312Z,33.30
2018-06-30T14:42:04.116Z,32.50
2018-06-30T14:44:32.129Z,32.50
2018-06-30T14:47:00.292Z,31.70
2018-06-30T14:49:28.168Z,31.90
2018-06-30T14:51:56.062Z,32.10
2018-06-30T14:54:23.880Z,32.40
2018-06-30T14:59:19.752Z,33.80
2018-06-30T15:01:48.021Z,33.80
2018-06-30T15:04:15.923Z,34.50
2018-06-30T15:06:43.780Z,34.30
2018-06-30T15:09:13.937Z,33.60
2018-06-30T15:11:42.864Z,33.20
2018-06-30T15:14:10.985Z,32.60
2018-06-30T15:16:38.972Z,32.10
2018-06-30T15:19:07.371Z,32.00
2018-06-30T15:21:35.151Z,31.90
2018-06-30T15:24:02.973Z,32.30
2018-06-30T15:26:30.883Z,32.40
2018-06-30T15:28:58.687Z,32.40
2018-06-30T15:31:26.588Z,32.20
2018-06-30T15:33:54.332Z,31.80
2018-06-30T15:36:22.110Z,32.30
2018-06-30T15:38:49.923Z,31.90
2018-06-30T15:41:17.644Z,32.30
2018-06-30T15:43:45.360Z,32.60
2018-06-30T15:46:13.099Z,32.50
2018-06-30T15:48:40.791Z,32.20
2018-06-30T15:51:08.513Z,32.40
2018-06-30T15:56:04.397Z,31.60
2018-06-30T15:58:32.112Z,32.20
2018-06-30T16:00:59.856Z,32.20
2018-06-30T16:03:27.632Z,32.20
2018-06-30T16:05:55.412Z,31.90
2018-06-30T16:10:50.840Z,32.00
2018-06-30T16:13:18.763Z,31.90
2018-06-30T16:15:46.573Z,32.00
2018-06-30T16:20:42.108Z,31.90
2018-06-30T16:23:09.950Z,32.00
2018-06-30T16:25:37.764Z,31.80
2018-06-30T16:28:06.126Z,31.60
2018-06-30T16:30:33.962Z,31.50
2018-06-30T16:33:01.748Z,30.90
2018-06-30T16:35:29.527Z,30.90
2018-06-30T16:37:57.296Z,30.70
2018-06-30T16:40:25.067Z,31.00
2018-06-30T16:42:52.773Z,30.70
2018-06-30T16:45:20.539Z,30.70
2018-06-30T16:47:48.930Z,30.30
2018-06-30T16:50:16.723Z,30.40
2018-06-30T16:52:44.468Z,30.00
2018-06-30T16:55:12.273Z,30.10
2018-06-30T16:57:40.033Z,30.40
2018-06-30T17:00:08.512Z,30.10
2018-06-30T17:02:36.328Z,30.40
2018-06-30T17:05:04.236Z,30.00
2018-06-30T17:07:31.969Z,30.10
2018-06-30T17:09:59.722Z,30.00
2018-06-30T17:12:27.452Z,30.30
2018-06-30T17:14:55.303Z,30.40
2018-06-30T17:17:23.010Z,30.00
2018-06-30T17:19:50.744Z,30.30
2018-06-30T17:22:18.504Z,30.20
2018-06-30T17:24:46.272Z,29.90
2018-06-30T17:27:14.040Z,29.90
2018-06-30T17:29:41.756Z,30.00
2018-06-30T17:32:09.523Z,30.30
2018-06-30T17:37:05.419Z,29.60
2018-06-30T17:39:33.341Z,29.60
2018-06-30T17:44:28.828Z,29.50
2018-06-30T17:46:56.672Z,29.40
2018-06-30T17:49:24.468Z,29.00
2018-06-30T17:54:20.414Z,29.10
2018-06-30T17:56:48.281Z,28.90
2018-06-30T17:59:16.149Z,29.00
2018-06-30T18:01:44.872Z,29.10
2018-06-30T18:04:12.644Z,29.00
2018-06-30T18:06:40.481Z,28.70
2018-06-30T18:09:09.858Z,28.80
2018-06-30T18:11:37.713Z,28.80
2018-06-30T18:14:05.761Z,28.70
2018-06-30T18:16:33.583Z,28.30
2018-06-30T18:19:01.362Z,28.30
2018-06-30T18:21:29.203Z,28.40
2018-06-30T18:26:24.792Z,28.10
2018-06-30T18:28:52.596Z,28.00
2018-06-30T18:31:20.396Z,27.90
2018-06-30T18:33:48.264Z,28.00
2018-06-30T18:36:16.113Z,28.00
2018-06-30T18:41:11.978Z,27.80
2018-06-30T18:43:39.737Z,27.60
2018-06-30T18:46:07.604Z,27.50
2018-06-30T18:48:35.412Z,27.90
2018-06-30T18:51:04.424Z,27.70
2018-06-30T18:55:59.973Z,27.30
2018-06-30T18:58:27.827Z,27.10
2018-06-30T19:00:55.587Z,27.10
2018-06-30T19:05:51.300Z,26.90
2018-06-30T19:08:19.184Z,27.00
2018-06-30T19:13:14.546Z,26.70
2018-06-30T19:15:42.342Z,26.80
2018-06-30T19:18:10.139Z,26.70
2018-06-30T19:20:37.938Z,26.80
2018-06-30T19:23:05.735Z,26.80
2018-06-30T19:25:33.541Z,26.20
2018-06-30T19:30:29.129Z,26.00
2018-06-30T19:32:57.066Z,26.20
2018-06-30T19:35:24.936Z,26.00
2018-06-30T19:37:52.712Z,26.00
2018-06-30T19:40:20.511Z,25.90
2018-06-30T19:42:48.304Z,25.80
2018-06-30T19:45:16.168Z,25.80
2018-06-30T19:47:43.906Z,25.90
2018-06-30T19:50:11.728Z,25.40
2018-06-30T19:52:39.578Z,25.60
2018-06-30T19:55:07.368Z,25.60
2018-06-30T19:57:35.208Z,25.70
2018-06-30T20:00:03.218Z,25.60
2018-06-30T20:02:31.024Z,25.30
2018-06-30T20:04:58.775Z,25.30
2018-06-30T20:07:26.629Z,25.10
2018-06-30T20:09:54.409Z,25.30
2018-06-30T20:12:22.238Z,25.00
2018-06-30T20:14:50.095Z,25.00
2018-06-30T20:17:17.940Z,25.00
2018-06-30T20:22:13.443Z,24.90
2018-06-30T20:24:41.315Z,25.00
2018-06-30T20:27:09.118Z,24.90
2018-06-30T20:29:36.912Z,24.90
2018-06-30T20:32:04.741Z,24.90
2018-06-30T20:34:32.540Z,24.80
2018-06-30T20:37:00.396Z,24.40
2018-06-30T20:39:28.192Z,24.80
2018-06-30T20:41:56.034Z,24.20
2018-06-30T20:44:23.798Z,24.10
2018-06-30T20:46:51.610Z,24.20
2018-06-30T20:49:19.443Z,24.20
2018-06-30T20:51:47.250Z,24.30
2018-06-30T20:54:15.042Z,24.20
2018-06-30T20:56:42.878Z,24.20
2018-06-30T20:59:10.693Z,24.10
2018-06-30T21:01:38.556Z,24.20
2018-06-30T21:04:06.303Z,24.10
2018-06-30T21:06:34.107Z,24.20
2018-06-30T21:09:01.964Z,24.10
2018-06-30T21:11:29.778Z,23.50
2018-06-30T21:13:57.575Z,23.90
2018-06-30T21:16:25.348Z,23.40
2018-06-30T21:18:53.321Z,23.40
2018-06-30T21:21:21.148Z,23.30
2018-06-30T21:23:49.113Z,23.50
2018-06-30T21:26:16.904Z,23.30
2018-06-30T21:28:44.721Z,23.20
2018-06-30T21:31:12.512Z,23.10
2018-06-30T21:33:40.275Z,23.20
2018-06-30T21:36:08.061Z,23.30
2018-06-30T21:38:35.831Z,23.30
2018-06-30T21:41:03.645Z,23.40
2018-06-30T21:43:31.429Z,23.20
2018-06-30T21:48:27.012Z,23.00
2018-06-30T21:50:54.780Z,22.60
2018-06-30T21:53:22.593Z,22.80
2018-06-30T21:55:50.383Z,22.50
2018-06-30T21:58:18.140Z,22.60
2018-06-30T22:00:51.528Z,22.50
2018-06-30T22:05:49.789Z,22.70
2018-06-30T22:08:17.608Z,22.50
2018-06-30T22:10:45.551Z,22.50
2018-06-30T22:13:13.372Z,22.70
2018-06-30T22:15:41.204Z,22.50
2018-06-30T22:18:08.984Z,22.60
2018-06-30T22:20:36.757Z,22.30
2018-06-30T22:23:04.710Z,22.50
2018-06-30T22:25:32.867Z,21.90
2018-06-30T22:28:00.966Z,22.00
2018-06-30T22:30:28.800Z,22.10
2018-06-30T22:35:24.267Z,21.80
2018-06-30T22:37:52.013Z,22.10
2018-06-30T22:40:19.781Z,21.90
2018-06-30T22:42:47.752Z,21.70
2018-06-30T22:45:16.044Z,21.70
2018-06-30T22:47:44.195Z,22.00
2018-06-30T22:50:12.383Z,21.90
2018-06-30T22:52:40.140Z,21.70
2018-06-30T22:55:07.967Z,21.90
2018-06-30T22:57:36.096Z,21.80
2018-06-30T23:00:06.232Z,21.70
2018-06-30T23:02:34.061Z,21.30
2018-06-30T23:05:01.832Z,21.50
2018-06-30T23:07:29.669Z,21.20
2018-06-30T23:12:25.055Z,21.30
2018-06-30T23:14:52.851Z,21.10
2018-06-30T23:17:20.644Z,21.30
2018-06-30T23:22:56.651Z,21.40
2018-06-30T23:25:26.133Z,21.10
2018-06-30T23:27:54.559Z,21.30
2018-06-30T23:30:22.911Z,21.00
2018-06-30T23:32:50.963Z,21.10
2018-06-30T23:35:18.976Z,21.30
2018-06-30T23:37:46.964Z,21.20
2018-06-30T23:42:42.661Z,20.90
2018-06-30T23:45:10.530Z,21.20
2018-06-30T23:47:38.340Z,21.20
2018-06-30T23:52:34.311Z,20.80
2018-06-30T23:55:02.204Z,20.90
2018-06-30T23:57:29.971Z,21.00
2018-06-30T23:59:57.710Z,20.80
